Time;durP1;ratioP1;P1;durP2;ratioP2;P2;SDS_P1;SDS_P2;PMS_P1;PMS_P2;Temp;Humidity;BMP_temperature;BMP_pressure;BME280_temperature;BME280_humidity;BME280_pressure;Samples;Min_cycle;Max_cycle;Signal;HPM_P1;HPM_P2
2022/11/18 00:02:04;;;;;;;;;;;;;;;;;;5013420;28;20029;-62
2022/11/18 00:04:29;;;;;;;;;;;;;;;;;;5019321;28;20271;-63
2022/11/18 00:06:57;;;;;;;;;;;;;;;;;;5028346;28;20430;-61
2022/11/18 00:09:22;;;;;;;;;;;;;;;;;;5026567;28;19924;-61
2022/11/18 00:14:37;;;;;;;;;;;;;;;;;;5028836;28;19963;-61
2022/11/18 00:17:05;;;;;;;;;;;;;;;;;;5026289;28;20368;-61
2022/11/18 00:19:33;;;;;;;;;;;;;;;;;;5029958;28;20052;-62
2022/11/18 00:22:00;;;;;;;;;;;;;;;;;;5030299;28;20015;-62
2022/11/18 00:24:28;;;;;;;;;;;;;;;;;;5032050;28;19998;-60
2022/11/18 00:26:54;;;;;;;;;;;;;;;;;;5027693;28;20403;-62
2022/11/18 00:29:22;;;;;;;;;;;;;;;;;;5029592;28;20762;-62
2022/11/18 00:31:50;;;;;;;;;;;;;;;;;;5029998;28;19917;-62
2022/11/18 00:34:15;;;;;;;;;;;;;;;;;;5012773;28;19927;-62
2022/11/18 00:36:41;;;;;;;;;;;;;;;;;;5028932;28;19924;-63
2022/11/18 00:39:09;;;;;;;;;;;;;;;;;;5029579;28;20864;-61
2022/11/18 00:44:18;;;;;;;;;;;;;;;;;;5028992;28;19927;-60
2022/11/18 00:46:44;;;;;;;;;;;;;;;;;;5027407;28;19926;-61
2022/11/18 00:49:09;;;;;;;;;;;;;;;;;;5031463;28;20359;-63
2022/11/18 00:51:34;;;;;;;;;;;;;;;;;;5009763;28;20347;-61
2022/11/18 00:53:59;;;;;;;;;;;;;;;;;;5031892;28;20435;-61
2022/11/18 00:56:25;;;;;;;;;;;;;;;;;;5027254;28;20011;-61
2022/11/18 00:58:52;;;;;;;;;;;;;;;;;;5029232;28;19921;-63
2022/11/18 01:01:17;;;;;;;;;;;;;;;;;;5031090;28;19928;-63
2022/11/18 01:03:43;;;;;;;;;;;;;;;;;;5048905;28;19924;-64
2022/11/18 01:06:10;;;;;;;;;;;;;;;;;;5018172;28;19916;-64
2022/11/18 01:08:35;;;;;;;;;;;;;;;;;;5022284;28;20341;-61
2022/11/18 01:13:47;;;;;;;;;;;;;;;;;;5035815;28;19920;-63
2022/11/18 01:16:12;;;;;;;;;;;;;;;;;;5053085;28;19927;-61
2022/11/18 01:18:37;;;;;;;;;;;;;;;;;;5019047;28;19924;-63
2022/11/18 01:21:03;;;;;;;;;;;;;;;;;;5054648;28;20355;-61
2022/11/18 01:23:28;;;;;;;;;;;;;;;;;;5031757;28;20290;-62
2022/11/18 01:25:54;;;;;;;;;;;;;;;;;;5053152;28;19993;-62
2022/11/18 01:28:24;;;;;;;;;;;;;;;;;;5051380;28;20414;-64
2022/11/18 01:30:52;;;;;;;;;;;;;;;;;;5050753;28;19916;-60
2022/11/18 01:33:17;;;;;;;;;;;;;;;;;;5052340;28;19924;-64
2022/11/18 01:35:46;;;;;;;;;;;;;;;;;;5053616;28;20291;-63
2022/11/18 01:38:12;;;;;;;;;;;;;;;;;;5047045;28;19925;-62
2022/11/18 01:40:42;;;;;;;;;;;;;;;;;;5025277;28;19924;-61
2022/11/18 01:43:07;;;;;;;;;;;;;;;;;;5034482;28;19924;-61
2022/11/18 01:45:35;;;;;;;;;;;;;;;;;;5035328;28;19985;-62
2022/11/18 01:48:05;;;;;;;;;;;;;;;;;;5041190;28;19935;-62
2022/11/18 01:50:30;;;;;;;;;;;;;;;;;;5033099;28;19960;-61
2022/11/18 01:52:58;;;;;;;;;;;;;;;;;;5033236;28;19927;-64
2022/11/18 01:55:24;;;;;;;;;;;;;;;;;;5021769;28;19979;-61
2022/11/18 01:57:49;;;;;;;;;;;;;;;;;;5033735;28;19948;-62
2022/11/18 02:00:17;;;;;;;;;;;;;;;;;;5049869;28;20085;-62
2022/11/18 02:02:44;;;;;;;;;;;;;;;;;;5034316;28;20318;-63
2022/11/18 02:05:12;;;;;;;;;;;;;;;;;;5030229;28;19920;-62
2022/11/18 02:07:37;;;;;;;;;;;;;;;;;;5048383;28;20077;-63
2022/11/18 02:10:03;;;;;;;;;;;;;;;;;;5020876;28;20345;-62
2022/11/18 02:12:28;;;;;;;;;;;;;;;;;;5050229;28;19920;-62
2022/11/18 02:14:54;;;;;;;;;;;;;;;;;;5052001;28;19924;-64
2022/11/18 02:17:22;;;;;;;;;;;;;;;;;;5035619;28;19928;-62
2022/11/18 02:19:48;;;;;;;;;;;;;;;;;;5051569;28;19924;-63
2022/11/18 02:22:13;;;;;;;;;;;;;;;;;;5035404;28;19939;-62
2022/11/18 02:24:39;;;;;;;;;;;;;;;;;;5050074;28;20403;-61
2022/11/18 02:27:08;;;;;;;;;;;;;;;;;;5049801;28;19920;-62
2022/11/18 02:29:34;;;;;;;;;;;;;;;;;;5039770;28;19969;-62
2022/11/18 02:32:00;;;;;;;;;;;;;;;;;;5047545;28;19920;-61
2022/11/18 02:34:28;;;;;;;;;;;;;;;;;;5050282;28;19916;-61
2022/11/18 02:36:54;;;;;;;;;;;;;;;;;;5046953;28;20446;-61
2022/11/18 02:39:22;;;;;;;;;;;;;;;;;;5031271;28;19930;-60
2022/11/18 02:41:47;;;;;;;;;;;;;;;;;;5050326;28;19990;-62
2022/11/18 02:44:15;;;;;;;;;;;;;;;;;;5033767;28;20386;-61
2022/11/18 02:46:40;;;;;;;;;;;;;;;;;;5023802;28;19950;-61
2022/11/18 02:49:11;;;;;;;;;;;;;;;;;;5036252;28;20356;-61
2022/11/18 02:51:36;;;;;;;;;;;;;;;;;;5052326;28;19920;-62
2022/11/18 02:54:03;;;;;;;;;;;;;;;;;;5032625;28;20011;-62
2022/11/18 02:56:29;;;;;;;;;;;;;;;;;;5033620;28;19931;-68
2022/11/18 02:58:56;;;;;;;;;;;;;;;;;;5017216;28;19924;-62
2022/11/18 03:01:22;;;;;;;;;;;;;;;;;;5028151;28;20540;-61
2022/11/18 03:03:50;;;;;;;;;;;;;;;;;;5031207;28;19993;-61
2022/11/18 03:06:20;;;;;;;;;;;;;;;;;;5049541;28;20118;-62
2022/11/18 03:08:45;;;;;;;;;;;;;;;;;;5031597;28;20368;-62
2022/11/18 03:11:14;;;;;;;;;;;;;;;;;;5038454;28;20697;-61
2022/11/18 03:13:39;;;;;;;;;;;;;;;;;;5031470;28;19924;-62
2022/11/18 03:16:04;;;;;;;;;;;;;;;;;;5021218;28;19928;-62
2022/11/18 03:18:32;;;;;;;;;;;;;;;;;;5021703;28;19924;-61
2022/11/18 03:21:02;;;;;;;;;;;;;;;;;;5034206;28;19927;-62
2022/11/18 03:23:31;;;;;;;;;;;;;;;;;;5052035;28;20544;-62
2022/11/18 03:26:01;;;;;;;;;;;;;;;;;;5050791;28;19974;-64
2022/11/18 03:28:27;;;;;;;;;;;;;;;;;;5028903;28;19945;-63
2022/11/18 03:30:53;;;;;;;;;;;;;;;;;;5050968;28;20232;-63
2022/11/18 03:33:18;;;;;;;;;;;;;;;;;;5051550;28;19916;-64
2022/11/18 03:35:43;;;;;;;;;;;;;;;;;;5037749;28;20647;-62
2022/11/18 03:38:09;;;;;;;;;;;;;;;;;;5033103;28;20422;-62
2022/11/18 03:40:38;;;;;;;;;;;;;;;;;;5049766;28;20157;-64
2022/11/18 03:43:03;;;;;;;;;;;;;;;;;;5022589;28;19932;-63
2022/11/18 03:45:28;;;;;;;;;;;;;;;;;;5015322;28;20036;-64
2022/11/18 03:47:54;;;;;;;;;;;;;;;;;;5052326;28;19923;-63
2022/11/18 03:50:19;;;;;;;;;;;;;;;;;;5028056;28;19947;-63
2022/11/18 03:52:45;;;;;;;;;;;;;;;;;;5033619;28;20011;-64
2022/11/18 03:55:10;;;;;;;;;;;;;;;;;;5018912;28;20298;-62
2022/11/18 03:57:35;;;;;;;;;;;;;;;;;;5043279;28;19920;-63
2022/11/18 04:00:03;;;;;;;;;;;;;;;;;;5032441;28;20474;-63
2022/11/18 04:02:29;;;;;;;;;;;;;;;;;;5030932;28;19932;-64
2022/11/18 04:04:54;;;;;;;;;;;;;;;;;;5051089;28;19920;-61
2022/11/18 04:07:22;;;;;;;;;;;;;;;;;;5029769;28;19920;-63
2022/11/18 04:09:50;;;;;;;;;;;;;;;;;;5030154;28;20043;-63
2022/11/18 04:12:15;;;;;;;;;;;;;;;;;;5047321;28;19920;-62
2022/11/18 04:14:43;;;;;;;;;;;;;;;;;;5029679;28;19920;-62
2022/11/18 04:17:11;;;;;;;;;;;;;;;;;;5036479;28;20428;-63
2022/11/18 04:19:39;;;;;;;;;;;;;;;;;;5049539;28;20057;-62
2022/11/18 04:22:05;;;;;;;;;;;;;;;;;;5047590;28;19917;-63
2022/11/18 04:24:30;;;;;;;;;;;;;;;;;;5030081;28;20579;-63
2022/11/18 04:26:55;;;;;;;;;;;;;;;;;;5028473;28;20446;-62
2022/11/18 04:29:20;;;;;;;;;;;;;;;;;;5038470;28;20959;-64
2022/11/18 04:31:48;;;;;;;;;;;;;;;;;;5050812;28;19959;-63
2022/11/18 04:34:13;;;;;;;;;;;;;;;;;;5028373;28;19925;-63
2022/11/18 04:36:41;;;;;;;;;;;;;;;;;;5049988;28;19920;-62
2022/11/18 04:39:09;;;;;;;;;;;;;;;;;;5029355;28;20043;-63
2022/11/18 04:44:19;;;;;;;;;;;;;;;;;;5034028;28;20636;-63
2022/11/18 04:46:44;;;;;;;;;;;;;;;;;;5036898;28;20003;-63
2022/11/18 04:49:14;;;;;;;;;;;;;;;;;;5020141;28;19924;-62
2022/11/18 04:51:42;;;;;;;;;;;;;;;;;;5055420;28;19921;-62
2022/11/18 04:54:10;;;;;;;;;;;;;;;;;;5020302;28;19963;-63
2022/11/18 04:56:35;;;;;;;;;;;;;;;;;;5020973;28;20015;-63
2022/11/18 04:59:00;;;;;;;;;;;;;;;;;;5034272;28;20425;-62
2022/11/18 05:01:26;;;;;;;;;;;;;;;;;;5037558;28;19920;-64
2022/11/18 05:03:52;;;;;;;;;;;;;;;;;;5057743;28;19920;-63
2022/11/18 05:06:19;;;;;;;;;;;;;;;;;;5038365;28;20766;-63
2022/11/18 05:08:47;;;;;;;;;;;;;;;;;;5055060;28;19947;-64
2022/11/18 05:13:57;;;;;;;;;;;;;;;;;;5034077;28;20377;-63
2022/11/18 05:16:23;;;;;;;;;;;;;;;;;;5051131;28;19924;-62
2022/11/18 05:18:48;;;;;;;;;;;;;;;;;;5055047;28;19924;-63
2022/11/18 05:21:14;;;;;;;;;;;;;;;;;;5057025;28;19915;-62
2022/11/18 05:23:43;;;;;;;;;;;;;;;;;;5048517;28;19928;-62
2022/11/18 05:26:11;;;;;;;;;;;;;;;;;;5036029;28;20003;-64
2022/11/18 05:28:37;;;;;;;;;;;;;;;;;;5048807;28;19916;-63
2022/11/18 05:31:02;;;;;;;;;;;;;;;;;;5031377;28;19970;-63
2022/11/18 05:33:30;;;;;;;;;;;;;;;;;;5049789;28;20280;-63
2022/11/18 05:35:58;;;;;;;;;;;;;;;;;;5016922;28;19922;-62
2022/11/18 05:38:23;;;;;;;;;;;;;;;;;;5034046;28;20060;-63
2022/11/18 05:40:51;;;;;;;;;;;;;;;;;;5030563;28;19927;-66
2022/11/18 05:43:19;;;;;;;;;;;;;;;;;;5050693;28;19916;-63
2022/11/18 05:45:49;;;;;;;;;;;;;;;;;;5051673;28;20287;-65
2022/11/18 05:48:14;;;;;;;;;;;;;;;;;;5027586;28;20283;-63
2022/11/18 05:50:42;;;;;;;;;;;;;;;;;;5031840;28;19960;-62
2022/11/18 05:53:08;;;;;;;;;;;;;;;;;;5050742;28;19921;-63
2022/11/18 05:55:38;;;;;;;;;;;;;;;;;;5058055;28;19999;-62
2022/11/18 05:58:03;;;;;;;;;;;;;;;;;;5037600;28;19978;-63
2022/11/18 06:00:32;;;;;;;;;;;;;;;;;;5053312;28;19924;-63
2022/11/18 06:02:57;;;;;;;;;;;;;;;;;;5053392;28;20046;-63
2022/11/18 06:05:25;;;;;;;;;;;;;;;;;;5049998;28;19928;-62
2022/11/18 06:07:50;;;;;;;;;;;;;;;;;;5057067;28;20459;-62
2022/11/18 06:10:18;;;;;;;;;;;;;;;;;;5055639;28;19920;-63
2022/11/18 06:12:43;;;;;;;;;;;;;;;;;;5054949;28;20287;-63
2022/11/18 06:15:08;;;;;;;;;;;;;;;;;;5054888;28;19924;-63
2022/11/18 06:17:34;;;;;;;;;;;;;;;;;;5037548;28;19959;-63
2022/11/18 06:19:59;;;;;;;;;;;;;;;;;;5038330;28;20371;-63
2022/11/18 06:22:25;;;;;;;;;;;;;;;;;;5054399;28;19985;-62
2022/11/18 06:24:53;;;;;;;;;;;;;;;;;;5035871;28;19934;-61
2022/11/18 06:27:21;;;;;;;;;;;;;;;;;;5042192;28;19920;-61
2022/11/18 06:29:47;;;;;;;;;;;;;;;;;;5051463;28;21458;-64
2022/11/18 06:32:12;;;;;;;;;;;;;;;;;;5029127;28;20788;-61
2022/11/18 06:34:38;;;;;;;;;;;;;;;;;;5047240;28;19927;-63
2022/11/18 06:37:05;;;;;;;;;;;;;;;;;;5018221;28;20057;-62
2022/11/18 06:39:33;;;;;;;;;;;;;;;;;;5026901;28;20514;-63
2022/11/18 06:41:58;;;;;;;;;;;;;;;;;;5050589;28;20894;-63
2022/11/18 06:44:24;;;;;;;;;;;;;;;;;;5055632;28;19926;-62
2022/11/18 06:46:55;;;;;;;;;;;;;;;;;;5036035;28;19947;-62
2022/11/18 06:49:21;;;;;;;;;;;;;;;;;;5037460;28;21474;-63
2022/11/18 06:51:46;;;;;;;;;;;;;;;;;;5034390;28;19963;-65
2022/11/18 06:54:11;;;;;;;;;;;;;;;;;;5034696;28;20520;-62
2022/11/18 06:56:41;;;;;;;;;;;;;;;;;;5036949;28;19920;-62
2022/11/18 06:59:12;;;;;;;;;;;;;;;;;;5049915;28;20548;-64
2022/11/18 07:01:41;;;;;;;;;;;;;;;;;;5049330;28;19931;-64
2022/11/18 07:04:06;;;;;;;;;;;;;;;;;;5029602;28;20541;-63
2022/11/18 07:06:31;;;;;;;;;;;;;;;;;;5028559;28;20135;-62
2022/11/18 07:08:59;;;;;;;;;;;;;;;;;;5022114;28;19916;-64
2022/11/18 07:11:27;;;;;;;;;;;;;;;;;;5036489;28;19922;-62
2022/11/18 07:13:52;;;;;;;;;;;;;;;;;;5035620;28;19921;-65
2022/11/18 07:16:18;;;;;;;;;;;;;;;;;;5024871;28;20040;-64
2022/11/18 07:18:45;;;;;;;;;;;;;;;;;;5055683;28;19935;-62
2022/11/18 07:21:11;;;;;;;;;;;;;;;;;;5054195;28;19920;-62
2022/11/18 07:23:41;;;;;;;;;;;;;;;;;;5032008;28;19932;-62
2022/11/18 07:26:06;;;;;;;;;;;;;;;;;;5053426;28;19923;-65
2022/11/18 07:28:31;;;;;;;;;;;;;;;;;;5034550;28;20872;-65
2022/11/18 07:30:59;;;;;;;;;;;;;;;;;;5044989;28;21247;-64
2022/11/18 07:33:24;;;;;;;;;;;;;;;;;;5032640;28;20375;-62
2022/11/18 07:35:50;;;;;;;;;;;;;;;;;;5034599;28;19927;-62
2022/11/18 07:38:15;;;;;;;;;;;;;;;;;;5054925;28;19930;-62
2022/11/18 07:40:43;;;;;;;;;;;;;;;;;;5035605;28;19932;-62
2022/11/18 07:43:08;;;;;;;;;;;;;;;;;;5035838;28;20085;-61
2022/11/18 07:45:34;;;;;;;;;;;;;;;;;;5053199;28;20972;-64
2022/11/18 07:47:59;;;;;;;;;;;;;;;;;;5054222;28;19920;-63
2022/11/18 07:50:27;;;;;;;;;;;;;;;;;;5024853;28;20031;-64
2022/11/18 07:52:52;;;;;;;;;;;;;;;;;;5034685;28;19922;-64
2022/11/18 07:55:17;;;;;;;;;;;;;;;;;;5036169;28;19931;-63
2022/11/18 07:57:43;;;;;;;;;;;;;;;;;;5034050;28;19920;-64
2022/11/18 08:00:11;;;;;;;;;;;;;;;;;;5052721;28;20081;-66
2022/11/18 08:02:36;;;;;;;;;;;;;;;;;;5052264;28;19951;-65
2022/11/18 08:05:01;;;;;;;;;;;;;;;;;;5033199;28;20379;-62
2022/11/18 08:07:26;;;;;;;;;;;;;;;;;;5036108;28;20015;-63
2022/11/18 08:09:52;;;;;;;;;;;;;;;;;;5050707;28;20025;-63
2022/11/18 08:12:17;;;;;;;;;;;;;;;;;;5053008;28;19920;-64
2022/11/18 08:14:43;;;;;;;;;;;;;;;;;;5055813;28;19927;-63
2022/11/18 08:17:11;;;;;;;;;;;;;;;;;;5054371;28;19927;-66
2022/11/18 08:19:36;;;;;;;;;;;;;;;;;;5040058;28;19924;-63
2022/11/18 08:22:01;;;;;;;;;;;;;;;;;;5029908;28;20344;-61
2022/11/18 08:24:28;;;;;;;;;;;;;;;;;;5057293;28;20015;-62
2022/11/18 08:26:53;;;;;;;;;;;;;;;;;;5057407;28;19968;-63
2022/11/18 08:29:21;;;;;;;;;;;;;;;;;;5038315;28;20027;-63
2022/11/18 08:31:46;;;;;;;;;;;;;;;;;;5042412;28;20070;-63
2022/11/18 08:34:12;;;;;;;;;;;;;;;;;;5055916;28;20086;-65
2022/11/18 08:36:37;;;;;;;;;;;;;;;;;;5036880;28;19920;-63
2022/11/18 08:39:02;;;;;;;;;;;;;;;;;;5038329;28;19932;-64
2022/11/18 08:41:28;;;;;;;;;;;;;;;;;;5037615;28;20649;-63
2022/11/18 08:43:53;;;;;;;;;;;;;;;;;;5043373;28;19927;-63
2022/11/18 08:46:21;;;;;;;;;;;;;;;;;;5055028;28;20038;-63
2022/11/18 08:48:49;;;;;;;;;;;;;;;;;;5055511;28;20583;-64
2022/11/18 08:51:14;;;;;;;;;;;;;;;;;;5058317;28;19927;-63
2022/11/18 08:53:40;;;;;;;;;;;;;;;;;;5037785;28;19920;-63
2022/11/18 08:56:05;;;;;;;;;;;;;;;;;;5039928;28;19931;-64
2022/11/18 08:58:30;;;;;;;;;;;;;;;;;;5037125;28;20372;-63
2022/11/18 09:00:55;;;;;;;;;;;;;;;;;;5024909;28;19931;-64
2022/11/18 09:03:21;;;;;;;;;;;;;;;;;;5036246;28;19925;-63
2022/11/18 09:05:46;;;;;;;;;;;;;;;;;;5035758;28;19916;-64
2022/11/18 09:08:11;;;;;;;;;;;;;;;;;;5034513;28;20367;-63
2022/11/18 09:10:37;;;;;;;;;;;;;;;;;;5038901;28;20015;-63
2022/11/18 09:13:02;;;;;;;;;;;;;;;;;;5034007;28;20392;-63
2022/11/18 09:15:28;;;;;;;;;;;;;;;;;;5037987;28;19923;-64
2022/11/18 09:17:54;;;;;;;;;;;;;;;;;;5034996;28;19932;-62
2022/11/18 09:20:21;;;;;;;;;;;;;;;;;;5025576;28;19935;-63
2022/11/18 09:22:46;;;;;;;;;;;;;;;;;;5036472;28;20022;-64
2022/11/18 09:25:14;;;;;;;;;;;;;;;;;;5042221;28;20393;-62
2022/11/18 09:27:39;;;;;;;;;;;;;;;;;;5036653;28;19927;-62
2022/11/18 09:30:05;;;;;;;;;;;;;;;;;;5034843;28;19916;-62
2022/11/18 09:32:30;;;;;;;;;;;;;;;;;;5036937;28;19920;-65
2022/11/18 09:34:56;;;;;;;;;;;;;;;;;;5032945;28;20299;-62
2022/11/18 09:37:21;;;;;;;;;;;;;;;;;;5042149;28;19921;-63
2022/11/18 09:39:47;;;;;;;;;;;;;;;;;;5033425;28;20336;-63
2022/11/18 09:42:12;;;;;;;;;;;;;;;;;;5034030;28;20632;-63
2022/11/18 09:44:37;;;;;;;;;;;;;;;;;;5034381;28;19917;-61
2022/11/18 09:47:03;;;;;;;;;;;;;;;;;;5034863;28;20637;-62
2022/11/18 09:49:28;;;;;;;;;;;;;;;;;;5036455;28;19931;-62
2022/11/18 09:51:55;;;;;;;;;;;;;;;;;;5034414;28;19921;-62
2022/11/18 09:54:21;;;;;;;;;;;;;;;;;;5033101;28;19922;-62
2022/11/18 09:56:47;;;;;;;;;;;;;;;;;;5034611;28;19928;-63
2022/11/18 09:59:13;;;;;;;;;;;;;;;;;;5022416;28;19920;-62
2022/11/18 10:01:38;;;;;;;;;;;;;;;;;;5025539;28;19948;-63
2022/11/18 10:04:04;;;;;;;;;;;;;;;;;;5057019;28;22306;-64
2022/11/18 10:06:32;;;;;;;;;;;;;;;;;;5036149;28;20229;-62
2022/11/18 10:08:58;;;;;;;;;;;;;;;;;;5025974;28;19916;-64
2022/11/18 10:11:23;;;;;;;;;;;;;;;;;;5035628;28;19921;-62
2022/11/18 10:13:48;;;;;;;;;;;;;;;;;;5054746;28;19917;-64
2022/11/18 10:16:14;;;;;;;;;;;;;;;;;;5036580;28;19920;-61
2022/11/18 10:18:41;;;;;;;;;;;;;;;;;;5035312;28;20011;-65
2022/11/18 10:21:09;;;;;;;;;;;;;;;;;;5036380;28;20027;-64
2022/11/18 10:23:34;;;;;;;;;;;;;;;;;;5023539;28;20611;-62
2022/11/18 10:26:00;;;;;;;;;;;;;;;;;;5035530;28;19935;-61
2022/11/18 10:28:28;;;;;;;;;;;;;;;;;;5054529;28;19955;-64
2022/11/18 10:30:53;;;;;;;;;;;;;;;;;;5038654;28;20379;-63
2022/11/18 10:33:18;;;;;;;;;;;;;;;;;;5035366;28;19916;-63
2022/11/18 10:35:46;;;;;;;;;;;;;;;;;;5028498;28;20495;-63
2022/11/18 10:38:13;;;;;;;;;;;;;;;;;;5052272;28;20006;-63
2022/11/18 10:40:41;;;;;;;;;;;;;;;;;;5054107;28;19920;-63
2022/11/18 10:43:06;;;;;;;;;;;;;;;;;;5024389;28;19930;-62
2022/11/18 10:45:31;;;;;;;;;;;;;;;;;;5055942;28;19917;-62
2022/11/18 10:47:57;;;;;;;;;;;;;;;;;;5036074;28;19928;-63
2022/11/18 10:50:25;;;;;;;;;;;;;;;;;;5053744;28;19927;-64
2022/11/18 10:52:53;;;;;;;;;;;;;;;;;;5054947;28;19960;-63
2022/11/18 10:55:21;;;;;;;;;;;;;;;;;;5036191;28;20011;-62
2022/11/18 10:57:47;;;;;;;;;;;;;;;;;;5036537;28;19916;-63
2022/11/18 11:00:15;;;;;;;;;;;;;;;;;;5053579;28;19939;-63
2022/11/18 11:02:40;;;;;;;;;;;;;;;;;;5034067;28;19929;-64
2022/11/18 11:05:06;;;;;;;;;;;;;;;;;;5033654;28;19916;-62
2022/11/18 11:07:33;;;;;;;;;;;;;;;;;;5033654;28;19925;-62
2022/11/18 11:09:59;;;;;;;;;;;;;;;;;;5030325;28;20057;-63
2022/11/18 11:12:27;;;;;;;;;;;;;;;;;;5046925;28;20375;-63
2022/11/18 11:14:52;;;;;;;;;;;;;;;;;;5031720;28;19927;-64
2022/11/18 11:17:18;;;;;;;;;;;;;;;;;;5035280;28;20228;-61
2022/11/18 11:19:45;;;;;;;;;;;;;;;;;;5032025;28;20379;-62
2022/11/18 11:22:11;;;;;;;;;;;;;;;;;;5038178;28;20557;-59
2022/11/18 11:24:36;;;;;;;;;;;;;;;;;;5016764;28;20700;-59
2022/11/18 11:27:01;;;;;;;;;;;;;;;;;;5035022;28;19928;-59
2022/11/18 11:29:28;;;;;;;;;;;;;;;;;;5020376;28;19920;-61
2022/11/18 11:31:54;;;;;;;;;;;;;;;;;;5031659;28;19927;-59
2022/11/18 11:34:21;;;;;;;;;;;;;;;;;;5018583;28;20720;-60
2022/11/18 11:36:47;;;;;;;;;;;;;;;;;;5032848;28;19932;-59
2022/11/18 11:39:14;;;;;;;;;;;;;;;;;;5031914;28;20866;-59
2022/11/18 11:41:40;;;;;;;;;;;;;;;;;;5029115;28;19956;-59
2022/11/18 11:44:05;;;;;;;;;;;;;;;;;;5033900;28;19931;-60
2022/11/18 11:46:31;;;;;;;;;;;;;;;;;;5031928;28;19916;-59
2022/11/18 11:48:57;;;;;;;;;;;;;;;;;;5030531;28;19924;-58
2022/11/18 11:51:25;;;;;;;;;;;;;;;;;;5033492;28;19919;-59
2022/11/18 11:53:50;;;;;;;;;;;;;;;;;;5028914;28;19937;-60
2022/11/18 11:56:20;;;;;;;;;;;;;;;;;;5032690;28;20117;-59
2022/11/18 11:58:45;;;;;;;;;;;;;;;;;;5031980;28;19937;-61
2022/11/18 12:01:12;;;;;;;;;;;;;;;;;;5030853;28;21360;-59
2022/11/18 12:03:40;;;;;;;;;;;;;;;;;;5034080;28;19928;-59
2022/11/18 12:06:05;;;;;;;;;;;;;;;;;;5031812;28;19920;-61
2022/11/18 12:08:33;;;;;;;;;;;;;;;;;;5030801;28;19964;-59
2022/11/18 12:11:01;;;;;;;;;;;;;;;;;;5032353;28;19916;-59
2022/11/18 12:13:28;;;;;;;;;;;;;;;;;;5031376;28;19923;-59
2022/11/18 12:15:56;;;;;;;;;;;;;;;;;;5033038;28;20049;-60
2022/11/18 12:18:21;;;;;;;;;;;;;;;;;;5032379;28;20668;-59
2022/11/18 12:20:49;;;;;;;;;;;;;;;;;;5029679;28;20355;-59
2022/11/18 12:23:14;;;;;;;;;;;;;;;;;;5031253;28;19923;-62
2022/11/18 12:25:39;;;;;;;;;;;;;;;;;;5031584;28;20098;-59
2022/11/18 12:28:05;;;;;;;;;;;;;;;;;;5032452;28;19921;-60
2022/11/18 12:30:30;;;;;;;;;;;;;;;;;;5033730;28;20001;-60
2022/11/18 12:33:00;;;;;;;;;;;;;;;;;;5031449;28;19921;-60
2022/11/18 12:35:26;;;;;;;;;;;;;;;;;;5033903;28;19995;-60
2022/11/18 12:37:51;;;;;;;;;;;;;;;;;;5027643;28;20595;-59
2022/11/18 12:40:19;;;;;;;;;;;;;;;;;;5022246;28;19937;-59
2022/11/18 12:45:36;;;;;;;;;;;;;;;;;;5034919;28;19927;-60
2022/11/18 12:48:01;;;;;;;;;;;;;;;;;;5032511;28;19920;-60
2022/11/18 12:50:26;;;;;;;;;;;;;;;;;;5030932;28;19924;-59
2022/11/18 12:52:52;;;;;;;;;;;;;;;;;;5034800;28;19921;-60
2022/11/18 12:55:17;;;;;;;;;;;;;;;;;;5021333;28;19928;-59
2022/11/18 12:57:43;;;;;;;;;;;;;;;;;;5032209;28;19920;-60
2022/11/18 13:00:08;;;;;;;;;;;;;;;;;;5032365;28;19957;-60
2022/11/18 13:02:35;;;;;;;;;;;;;;;;;;5045596;28;19920;-59
2022/11/18 13:05:03;;;;;;;;;;;;;;;;;;5056494;28;19924;-61
2022/11/18 13:10:15;;;;;;;;;;;;;;;;;;5035914;28;19926;-60
2022/11/18 13:12:40;;;;;;;;;;;;;;;;;;5037290;28;19986;-59
2022/11/18 13:17:57;;;;;;;;;;;;;;;;;;5054576;28;19923;-61
2022/11/18 13:20:22;;;;;;;;;;;;;;;;;;5023377;28;20006;-60
2022/11/18 13:25:34;;;;;;;;;;;;;;;;;;5037361;28;19963;-61
2022/11/18 13:28:00;;;;;;;;;;;;;;;;;;5054035;28;20015;-62
2022/11/18 13:30:28;;;;;;;;;;;;;;;;;;5035850;28;19920;-59
2022/11/18 13:32:56;;;;;;;;;;;;;;;;;;5054998;28;19934;-59
2022/11/18 13:35:21;;;;;;;;;;;;;;;;;;5037496;28;19920;-61
2022/11/18 13:37:50;;;;;;;;;;;;;;;;;;5055467;28;19967;-60
2022/11/18 13:40:18;;;;;;;;;;;;;;;;;;5038891;28;19930;-61
2022/11/18 13:42:43;;;;;;;;;;;;;;;;;;5024724;28;19916;-59
2022/11/18 13:45:11;;;;;;;;;;;;;;;;;;5053333;28;19931;-59
2022/11/18 13:47:36;;;;;;;;;;;;;;;;;;5037777;28;19920;-60
2022/11/18 13:50:02;;;;;;;;;;;;;;;;;;5039624;28;19920;-60
2022/11/18 13:52:27;;;;;;;;;;;;;;;;;;5023711;28;19922;-61
2022/11/18 13:54:53;;;;;;;;;;;;;;;;;;5036638;28;19924;-60
2022/11/18 13:57:18;;;;;;;;;;;;;;;;;;5036510;28;20343;-61
2022/11/18 13:59:46;;;;;;;;;;;;;;;;;;5038314;28;19939;-61
2022/11/18 14:02:11;;;;;;;;;;;;;;;;;;5018231;28;20301;-59
2022/11/18 14:04:41;;;;;;;;;;;;;;;;;;5035804;28;20263;-60
2022/11/18 14:07:09;;;;;;;;;;;;;;;;;;5035018;28;19916;-58
2022/11/18 14:09:34;;;;;;;;;;;;;;;;;;5033175;28;19924;-61
2022/11/18 14:11:59;;;;;;;;;;;;;;;;;;5033597;28;19924;-58
2022/11/18 14:14:27;;;;;;;;;;;;;;;;;;5032279;28;19916;-59
2022/11/18 14:16:52;;;;;;;;;;;;;;;;;;5024289;28;20284;-58
2022/11/18 14:19:18;;;;;;;;;;;;;;;;;;5035122;28;19932;-59
2022/11/18 14:21:46;;;;;;;;;;;;;;;;;;5030169;28;19932;-59
2022/11/18 14:24:13;;;;;;;;;;;;;;;;;;5033128;28;19921;-59
2022/11/18 14:26:41;;;;;;;;;;;;;;;;;;5034271;28;19927;-59
2022/11/18 14:29:07;;;;;;;;;;;;;;;;;;5033889;28;19917;-59
2022/11/18 14:31:35;;;;;;;;;;;;;;;;;;5035881;28;19920;-60
2022/11/18 14:34:02;;;;;;;;;;;;;;;;;;5035622;28;19920;-61
2022/11/18 14:36:33;;;;;;;;;;;;;;;;;;5031234;28;20500;-62
2022/11/18 14:39:03;;;;;;;;;;;;;;;;;;5031839;28;20068;-62
2022/11/18 14:41:47;;;;;;;;;;;;;;;;;;5036034;28;20407;-63
2022/11/18 14:44:12;;;;;;;;;;;;;;;;;;5022306;28;19928;-61
2022/11/18 14:46:38;;;;;;;;;;;;;;;;;;5033421;28;19921;-60
2022/11/18 14:49:05;;;;;;;;;;;;;;;;;;5030797;28;19995;-61
2022/11/18 14:51:33;;;;;;;;;;;;;;;;;;5032604;28;20579;-61
2022/11/18 14:54:01;;;;;;;;;;;;;;;;;;5030030;28;20048;-59
2022/11/18 14:56:28;;;;;;;;;;;;;;;;;;5041813;28;20274;-61
2022/11/18 14:58:54;;;;;;;;;;;;;;;;;;5018913;28;19936;-61
2022/11/18 15:01:19;;;;;;;;;;;;;;;;;;5033861;28;19959;-60
2022/11/18 15:03:47;;;;;;;;;;;;;;;;;;5052126;28;20027;-61
2022/11/18 15:06:12;;;;;;;;;;;;;;;;;;5054979;28;19927;-61
2022/11/18 15:08:37;;;;;;;;;;;;;;;;;;5034138;28;19956;-60
2022/11/18 15:11:05;;;;;;;;;;;;;;;;;;5035801;28;20073;-60
2022/11/18 15:13:30;;;;;;;;;;;;;;;;;;5018443;28;19925;-62
2022/11/18 15:15:56;;;;;;;;;;;;;;;;;;5022755;28;19921;-62
2022/11/18 15:18:23;;;;;;;;;;;;;;;;;;5037480;28;19927;-61
2022/11/18 15:20:49;;;;;;;;;;;;;;;;;;5034217;28;19950;-59
2022/11/18 15:23:14;;;;;;;;;;;;;;;;;;5033489;28;20280;-60
2022/11/18 15:25:42;;;;;;;;;;;;;;;;;;5053710;28;19916;-60
2022/11/18 15:28:10;;;;;;;;;;;;;;;;;;5034279;28;19924;-60
2022/11/18 15:30:38;;;;;;;;;;;;;;;;;;5054678;28;19920;-61
2022/11/18 15:33:03;;;;;;;;;;;;;;;;;;5035733;28;19924;-62
2022/11/18 15:35:28;;;;;;;;;;;;;;;;;;5036254;28;20371;-60
2022/11/18 15:37:54;;;;;;;;;;;;;;;;;;5033778;28;20355;-61
2022/11/18 15:40:21;;;;;;;;;;;;;;;;;;5036074;28;20076;-60
2022/11/18 15:42:49;;;;;;;;;;;;;;;;;;5053591;28;19943;-59
2022/11/18 15:45:16;;;;;;;;;;;;;;;;;;5052399;28;19920;-60
2022/11/18 15:47:42;;;;;;;;;;;;;;;;;;5054950;28;19981;-61
2022/11/18 15:50:08;;;;;;;;;;;;;;;;;;5055280;28;20454;-61
2022/11/18 15:52:36;;;;;;;;;;;;;;;;;;5053446;28;19920;-60
2022/11/18 15:55:01;;;;;;;;;;;;;;;;;;5028537;28;19944;-61
2022/11/18 15:57:26;;;;;;;;;;;;;;;;;;5031217;28;20011;-59
2022/11/18 15:59:54;;;;;;;;;;;;;;;;;;5021242;28;19924;-60
2022/11/18 16:02:21;;;;;;;;;;;;;;;;;;5037540;28;19925;-61
2022/11/18 16:04:49;;;;;;;;;;;;;;;;;;5053716;28;19917;-60
2022/11/18 16:07:14;;;;;;;;;;;;;;;;;;5053561;28;19921;-61
2022/11/18 16:18:05;;;;;;;;;;;;;;;;;;5035371;28;20001;-62
2022/11/18 16:20:36;;;;;;;;;;;;;;;;;;5055537;28;21512;-61
2022/11/18 16:23:01;;;;;;;;;;;;;;;;;;5034236;28;19928;-63
2022/11/18 16:25:29;;;;;;;;;;;;;;;;;;5030641;28;19999;-63
2022/11/18 16:27:54;;;;;;;;;;;;;;;;;;5054523;28;20072;-61
2022/11/18 16:33:06;;;;;;;;;;;;;;;;;;5036028;28;19934;-61
2022/11/18 16:35:34;;;;;;;;;;;;;;;;;;5035194;28;19920;-62
2022/11/18 16:38:00;;;;;;;;;;;;;;;;;;5057593;28;20267;-61
2022/11/18 16:40:25;;;;;;;;;;;;;;;;;;5039394;28;19920;-60
2022/11/18 16:42:50;;;;;;;;;;;;;;;;;;5055913;28;20405;-61
2022/11/18 16:45:16;;;;;;;;;;;;;;;;;;5028688;28;19927;-60
2022/11/18 16:47:43;;;;;;;;;;;;;;;;;;5027539;28;20021;-60
2022/11/18 16:50:09;;;;;;;;;;;;;;;;;;5038568;28;20242;-60
2022/11/18 16:52:37;;;;;;;;;;;;;;;;;;5039452;28;19916;-61
2022/11/18 16:55:02;;;;;;;;;;;;;;;;;;5022001;28;20386;-60
2022/11/18 16:57:28;;;;;;;;;;;;;;;;;;5026558;28;19999;-61
2022/11/18 16:59:55;;;;;;;;;;;;;;;;;;5057868;28;19920;-60
2022/11/18 17:02:23;;;;;;;;;;;;;;;;;;5059711;28;20377;-59
2022/11/18 17:04:48;;;;;;;;;;;;;;;;;;5054698;28;19916;-59
2022/11/18 17:07:16;;;;;;;;;;;;;;;;;;5037440;28;19944;-59
2022/11/18 17:09:44;;;;;;;;;;;;;;;;;;5056207;28;20229;-59
2022/11/18 17:12:12;;;;;;;;;;;;;;;;;;5043846;28;20468;-59
2022/11/18 17:14:38;;;;;;;;;;;;;;;;;;5056109;28;20010;-62
2022/11/18 17:17:04;;;;;;;;;;;;;;;;;;5037103;28;20062;-60